Terminal Aerodrome Forecast
Issued by NWS

Home | Current Version | Previous Version | Text Only | Print | Product List | Glossary On
Versions: 1 2 3 4 5 6 7 8 9 10 11 12
000
FTUS45 KABQ 182300 RRA
TAFROW
TAF
KROW 182341Z 1900/1924 25017G27KT P6SM FEW100
     FM190200 28009KT P6SM SCT120
     FM191500 36013G23KT P6SM SKC
     FM191800 36009KT P6SM SKC=

USA.gov is the U.S. government's official web portal to all federal, state and local government web resources and services.